sensor_id;sensor_type;location;lat;lon;timestamp;temperature;humidity
38209;DHT22;24016;52.102;11.584;2023-12-20T00:01:40;5.30;99.90
38209;DHT22;24016;52.102;11.584;2023-12-20T00:04:06;5.30;99.90
38209;DHT22;24016;52.102;11.584;2023-12-20T00:06:31;5.30;99.90
38209;DHT22;24016;52.102;11.584;2023-12-20T00:08:57;5.20;99.90
38209;DHT22;24016;52.102;11.584;2023-12-20T00:11:25;5.20;99.90
38209;DHT22;24016;52.102;11.584;2023-12-20T00:13:51;5.20;99.90
38209;DHT22;24016;52.102;11.584;2023-12-20T00:16:17;5.20;99.90
38209;DHT22;24016;52.102;11.584;2023-12-20T00:18:43;5.20;99.90
38209;DHT22;24016;52.102;11.584;2023-12-20T00:21:08;5.20;99.90
38209;DHT22;24016;52.102;11.584;2023-12-20T00:23:34;5.20;99.90
38209;DHT22;24016;52.102;11.584;2023-12-20T00:25:59;5.20;99.90
38209;DHT22;24016;52.102;11.584;2023-12-20T00:28:25;5.30;99.90
38209;DHT22;24016;52.102;11.584;2023-12-20T00:30:51;5.30;99.90
38209;DHT22;24016;52.102;11.584;2023-12-20T00:33:17;5.30;99.90
38209;DHT22;24016;52.102;11.584;2023-12-20T00:35:42;5.30;99.90
38209;DHT22;24016;52.102;11.584;2023-12-20T00:38:08;5.30;99.90
38209;DHT22;24016;52.102;11.584;2023-12-20T00:40:34;5.30;99.90
38209;DHT22;24016;52.102;11.584;2023-12-20T00:43:00;5.30;99.90
38209;DHT22;24016;52.102;11.584;2023-12-20T00:45:25;5.30;99.90
38209;DHT22;24016;52.102;11.584;2023-12-20T00:47:51;5.30;99.90
38209;DHT22;24016;52.102;11.584;2023-12-20T00:50:17;5.30;99.90
38209;DHT22;24016;52.102;11.584;2023-12-20T00:52:42;5.30;99.90
38209;DHT22;24016;52.102;11.584;2023-12-20T00:55:08;5.30;99.90
38209;DHT22;24016;52.102;11.584;2023-12-20T00:57:34;5.30;99.90
38209;DHT22;24016;52.102;11.584;2023-12-20T00:59:59;5.30;99.90
38209;DHT22;24016;52.102;11.584;2023-12-20T01:02:25;5.30;99.90
38209;DHT22;24016;52.102;11.584;2023-12-20T01:04:50;5.40;99.90
38209;DHT22;24016;52.102;11.584;2023-12-20T01:07:16;5.40;99.90
38209;DHT22;24016;52.102;11.584;2023-12-20T01:09:41;5.40;99.90
38209;DHT22;24016;52.102;11.584;2023-12-20T01:12:08;5.40;99.90
38209;DHT22;24016;52.102;11.584;2023-12-20T01:14:34;5.30;99.90
38209;DHT22;24016;52.102;11.584;2023-12-20T01:16:59;5.30;99.90
38209;DHT22;24016;52.102;11.584;2023-12-20T01:19:25;5.30;99.90
38209;DHT22;24016;52.102;11.584;2023-12-20T01:21:50;5.30;99.90
38209;DHT22;24016;52.102;11.584;2023-12-20T01:24:16;5.30;99.90
38209;DHT22;24016;52.102;11.584;2023-12-20T01:26:41;5.40;99.90
38209;DHT22;24016;52.102;11.584;2023-12-20T01:29:07;5.40;99.90
38209;DHT22;24016;52.102;11.584;2023-12-20T01:31:33;5.40;99.90
38209;DHT22;24016;52.102;11.584;2023-12-20T01:33:58;5.40;99.90
38209;DHT22;24016;52.102;11.584;2023-12-20T01:36:24;5.40;99.90
38209;DHT22;24016;52.102;11.584;2023-12-20T01:38:49;5.40;99.90
38209;DHT22;24016;52.102;11.584;2023-12-20T01:41:15;5.40;99.90
38209;DHT22;24016;52.102;11.584;2023-12-20T01:43:40;5.50;99.90
38209;DHT22;24016;52.102;11.584;2023-12-20T01:46:06;5.50;99.90
38209;DHT22;24016;52.102;11.584;2023-12-20T01:48:32;5.50;99.90
38209;DHT22;24016;52.102;11.584;2023-12-20T01:50:59;5.50;99.90
38209;DHT22;24016;52.102;11.584;2023-12-20T01:53:25;5.50;99.90
38209;DHT22;24016;52.102;11.584;2023-12-20T01:55:52;5.50;99.90
38209;DHT22;24016;52.102;11.584;2023-12-20T01:58:19;5.50;99.90
38209;DHT22;24016;52.102;11.584;2023-12-20T02:00:45;5.60;99.90
38209;DHT22;24016;52.102;11.584;2023-12-20T02:03:11;5.50;99.90
38209;DHT22;24016;52.102;11.584;2023-12-20T02:05:38;5.40;99.90
38209;DHT22;24016;52.102;11.584;2023-12-20T02:08:04;5.30;99.90
38209;DHT22;24016;52.102;11.584;2023-12-20T02:10:31;5.10;99.90
38209;DHT22;24016;52.102;11.584;2023-12-20T02:12:56;5.00;99.90
38209;DHT22;24016;52.102;11.584;2023-12-20T02:15:22;4.90;99.90
38209;DHT22;24016;52.102;11.584;2023-12-20T02:17:48;4.90;99.90
38209;DHT22;24016;52.102;11.584;2023-12-20T02:20:14;4.90;99.90
38209;DHT22;24016;52.102;11.584;2023-12-20T02:22:39;4.90;99.90
38209;DHT22;24016;52.102;11.584;2023-12-20T02:25:05;4.80;99.90
38209;DHT22;24016;52.102;11.584;2023-12-20T02:27:31;4.90;99.90
38209;DHT22;24016;52.102;11.584;2023-12-20T02:29:56;4.80;99.90
38209;DHT22;24016;52.102;11.584;2023-12-20T02:32:23;4.90;99.90
38209;DHT22;24016;52.102;11.584;2023-12-20T02:34:51;4.80;99.90
38209;DHT22;24016;52.102;11.584;2023-12-20T02:37:17;4.80;99.90
38209;DHT22;24016;52.102;11.584;2023-12-20T02:39:43;4.80;99.90
38209;DHT22;24016;52.102;11.584;2023-12-20T02:42:08;4.90;99.90
38209;DHT22;24016;52.102;11.584;2023-12-20T02:44:34;4.90;99.90
38209;DHT22;24016;52.102;11.584;2023-12-20T02:47:00;4.90;99.90
38209;DHT22;24016;52.102;11.584;2023-12-20T02:49:26;4.90;99.90
38209;DHT22;24016;52.102;11.584;2023-12-20T02:51:51;4.90;99.90
38209;DHT22;24016;52.102;11.584;2023-12-20T02:54:17;4.90;99.90
38209;DHT22;24016;52.102;11.584;2023-12-20T02:56:42;4.80;99.90
38209;DHT22;24016;52.102;11.584;2023-12-20T02:59:08;4.80;99.90
38209;DHT22;24016;52.102;11.584;2023-12-20T03:01:42;4.80;99.90
38209;DHT22;24016;52.102;11.584;2023-12-20T03:04:07;4.70;99.90
38209;DHT22;24016;52.102;11.584;2023-12-20T03:06:33;4.70;99.90
38209;DHT22;24016;52.102;11.584;2023-12-20T03:08:59;4.70;99.90
38209;DHT22;24016;52.102;11.584;2023-12-20T03:11:27;4.70;99.90
38209;DHT22;24016;52.102;11.584;2023-12-20T03:13:53;4.70;99.90
38209;DHT22;24016;52.102;11.584;2023-12-20T03:16:18;4.60;99.90
38209;DHT22;24016;52.102;11.584;2023-12-20T03:18:44;4.60;99.90
38209;DHT22;24016;52.102;11.584;2023-12-20T03:21:09;4.60;99.90
38209;DHT22;24016;52.102;11.584;2023-12-20T03:23:35;4.60;99.90
38209;DHT22;24016;52.102;11.584;2023-12-20T03:26:00;4.70;99.90
38209;DHT22;24016;52.102;11.584;2023-12-20T03:28:27;4.70;99.90
38209;DHT22;24016;52.102;11.584;2023-12-20T03:30:52;4.70;99.90
38209;DHT22;24016;52.102;11.584;2023-12-20T03:33:18;4.70;99.90
38209;DHT22;24016;52.102;11.584;2023-12-20T03:35:44;4.70;99.90
38209;DHT22;24016;52.102;11.584;2023-12-20T03:38:09;4.70;99.90
38209;DHT22;24016;52.102;11.584;2023-12-20T03:40:35;4.70;99.90
38209;DHT22;24016;52.102;11.584;2023-12-20T03:43:00;4.60;99.90
38209;DHT22;24016;52.102;11.584;2023-12-20T03:45:26;4.60;99.90
38209;DHT22;24016;52.102;11.584;2023-12-20T03:47:51;4.50;99.90
38209;DHT22;24016;52.102;11.584;2023-12-20T03:50:26;4.50;99.90
38209;DHT22;24016;52.102;11.584;2023-12-20T03:52:51;4.40;99.90
38209;DHT22;24016;52.102;11.584;2023-12-20T03:55:17;4.40;99.90
38209;DHT22;24016;52.102;11.584;2023-12-20T03:57:43;4.30;99.90
38209;DHT22;24016;52.102;11.584;2023-12-20T04:00:09;4.20;99.90
38209;DHT22;24016;52.102;11.584;2023-12-20T04:02:38;4.20;99.90
38209;DHT22;24016;52.102;11.584;2023-12-20T04:05:05;4.10;99.90
38209;DHT22;24016;52.102;11.584;2023-12-20T04:07:31;4.10;99.90
38209;DHT22;24016;52.102;11.584;2023-12-20T04:09:56;4.00;99.90
38209;DHT22;24016;52.102;11.584;2023-12-20T04:12:22;4.00;99.90
38209;DHT22;24016;52.102;11.584;2023-12-20T04:14:47;4.00;99.90
38209;DHT22;24016;52.102;11.584;2023-12-20T04:17:13;3.90;99.90
38209;DHT22;24016;52.102;11.584;2023-12-20T04:19:41;3.90;99.90
38209;DHT22;24016;52.102;11.584;2023-12-20T04:22:07;3.90;99.90
38209;DHT22;24016;52.102;11.584;2023-12-20T04:24:32;3.90;99.90
38209;DHT22;24016;52.102;11.584;2023-12-20T04:26:58;3.80;99.90
38209;DHT22;24016;52.102;11.584;2023-12-20T04:29:24;3.80;99.90
38209;DHT22;24016;52.102;11.584;2023-12-20T04:31:49;3.70;99.90
38209;DHT22;24016;52.102;11.584;2023-12-20T04:34:17;3.70;99.90
38209;DHT22;24016;52.102;11.584;2023-12-20T04:36:42;3.60;99.90
38209;DHT22;24016;52.102;11.584;2023-12-20T04:39:08;3.60;99.90
38209;DHT22;24016;52.102;11.584;2023-12-20T04:41:33;3.50;99.90
38209;DHT22;24016;52.102;11.584;2023-12-20T04:43:59;3.50;99.90
38209;DHT22;24016;52.102;11.584;2023-12-20T04:46:26;3.50;99.90
38209;DHT22;24016;52.102;11.584;2023-12-20T04:48:51;3.50;99.90
38209;DHT22;24016;52.102;11.584;2023-12-20T04:51:17;3.50;99.90
38209;DHT22;24016;52.102;11.584;2023-12-20T04:53:43;3.40;99.90
38209;DHT22;24016;52.102;11.584;2023-12-20T04:56:08;3.40;99.90
38209;DHT22;24016;52.102;11.584;2023-12-20T04:58:34;3.40;99.90
38209;DHT22;24016;52.102;11.584;2023-12-20T05:01:00;3.40;99.90
38209;DHT22;24016;52.102;11.584;2023-12-20T05:03:26;3.40;99.90
38209;DHT22;24016;52.102;11.584;2023-12-20T05:05:52;3.30;99.90
38209;DHT22;24016;52.102;11.584;2023-12-20T05:08:18;3.30;99.90
38209;DHT22;24016;52.102;11.584;2023-12-20T05:10:44;3.30;99.90
38209;DHT22;24016;52.102;11.584;2023-12-20T05:13:09;3.30;99.90
38209;DHT22;24016;52.102;11.584;2023-12-20T05:15:35;3.30;99.90
38209;DHT22;24016;52.102;11.584;2023-12-20T05:18:01;3.40;99.90
38209;DHT22;24016;52.102;11.584;2023-12-20T05:20:26;3.40;99.90
38209;DHT22;24016;52.102;11.584;2023-12-20T05:22:52;3.40;99.90
38209;DHT22;24016;52.102;11.584;2023-12-20T05:25:17;3.40;99.90
38209;DHT22;24016;52.102;11.584;2023-12-20T05:27:43;3.40;99.90
38209;DHT22;24016;52.102;11.584;2023-12-20T05:30:09;3.40;99.90
38209;DHT22;24016;52.102;11.584;2023-12-20T05:32:35;3.40;99.90
38209;DHT22;24016;52.102;11.584;2023-12-20T05:35:02;3.40;99.90
38209;DHT22;24016;52.102;11.584;2023-12-20T05:37:29;3.40;99.90
38209;DHT22;24016;52.102;11.584;2023-12-20T05:39:55;3.40;99.90
38209;DHT22;24016;52.102;11.584;2023-12-20T05:42:20;3.50;99.90
38209;DHT22;24016;52.102;11.584;2023-12-20T05:44:46;3.60;99.90
38209;DHT22;24016;52.102;11.584;2023-12-20T05:47:11;3.70;99.90
38209;DHT22;24016;52.102;11.584;2023-12-20T05:49:38;3.80;99.90
38209;DHT22;24016;52.102;11.584;2023-12-20T05:52:04;3.90;99.90
38209;DHT22;24016;52.102;11.584;2023-12-20T05:54:30;4.00;99.90
38209;DHT22;24016;52.102;11.584;2023-12-20T05:56:55;4.10;99.90
38209;DHT22;24016;52.102;11.584;2023-12-20T05:59:21;4.10;99.90
38209;DHT22;24016;52.102;11.584;2023-12-20T06:01:46;4.20;99.90
38209;DHT22;24016;52.102;11.584;2023-12-20T06:04:12;4.20;99.90
38209;DHT22;24016;52.102;11.584;2023-12-20T06:06:41;4.30;99.90
38209;DHT22;24016;52.102;11.584;2023-12-20T06:09:07;4.30;99.90
38209;DHT22;24016;52.102;11.584;2023-12-20T06:11:33;4.30;99.90
38209;DHT22;24016;52.102;11.584;2023-12-20T06:13:58;4.30;99.90
38209;DHT22;24016;52.102;11.584;2023-12-20T06:16:24;4.30;99.90
38209;DHT22;24016;52.102;11.584;2023-12-20T06:18:50;4.40;99.90
38209;DHT22;24016;52.102;11.584;2023-12-20T06:21:15;4.40;99.90
38209;DHT22;24016;52.102;11.584;2023-12-20T06:23:41;4.40;99.90
38209;DHT22;24016;52.102;11.584;2023-12-20T06:26:07;4.40;99.90
38209;DHT22;24016;52.102;11.584;2023-12-20T06:28:32;4.50;99.90
38209;DHT22;24016;52.102;11.584;2023-12-20T06:31:00;4.50;99.90
38209;DHT22;24016;52.102;11.584;2023-12-20T06:33:26;4.50;99.90
38209;DHT22;24016;52.102;11.584;2023-12-20T06:35:51;4.60;99.90
38209;DHT22;24016;52.102;11.584;2023-12-20T06:38:18;4.60;99.90
38209;DHT22;24016;52.102;11.584;2023-12-20T06:40:43;4.60;99.90
38209;DHT22;24016;52.102;11.584;2023-12-20T06:43:09;4.60;99.90
38209;DHT22;24016;52.102;11.584;2023-12-20T06:45:35;4.50;99.90
38209;DHT22;24016;52.102;11.584;2023-12-20T06:48:00;4.50;99.90
38209;DHT22;24016;52.102;11.584;2023-12-20T06:50:26;4.50;99.90
38209;DHT22;24016;52.102;11.584;2023-12-20T06:52:51;4.50;99.90
38209;DHT22;24016;52.102;11.584;2023-12-20T06:55:17;4.50;99.90
38209;DHT22;24016;52.102;11.584;2023-12-20T06:57:43;4.50;99.90
38209;DHT22;24016;52.102;11.584;2023-12-20T07:00:11;4.60;99.90
38209;DHT22;24016;52.102;11.584;2023-12-20T07:02:36;4.60;99.90
38209;DHT22;24016;52.102;11.584;2023-12-20T07:05:02;4.70;99.90
38209;DHT22;24016;52.102;11.584;2023-12-20T07:07:28;4.70;99.90
38209;DHT22;24016;52.102;11.584;2023-12-20T07:09:54;4.80;99.90
38209;DHT22;24016;52.102;11.584;2023-12-20T07:12:19;4.90;99.90
38209;DHT22;24016;52.102;11.584;2023-12-20T07:14:45;4.90;99.90
38209;DHT22;24016;52.102;11.584;2023-12-20T07:17:11;4.90;99.90
38209;DHT22;24016;52.102;11.584;2023-12-20T07:19:39;4.80;99.90
38209;DHT22;24016;52.102;11.584;2023-12-20T07:22:05;4.80;99.90
38209;DHT22;24016;52.102;11.584;2023-12-20T07:24:31;4.70;99.90
38209;DHT22;24016;52.102;11.584;2023-12-20T07:26:57;4.70;99.90
38209;DHT22;24016;52.102;11.584;2023-12-20T07:29:23;4.70;99.90
38209;DHT22;24016;52.102;11.584;2023-12-20T07:31:49;4.60;99.90
38209;DHT22;24016;52.102;11.584;2023-12-20T07:34:14;4.70;99.90
38209;DHT22;24016;52.102;11.584;2023-12-20T07:36:40;4.70;99.90
38209;DHT22;24016;52.102;11.584;2023-12-20T07:39:05;4.70;99.90
38209;DHT22;24016;52.102;11.584;2023-12-20T07:41:31;4.80;99.90
38209;DHT22;24016;52.102;11.584;2023-12-20T07:43:56;4.70;99.90
38209;DHT22;24016;52.102;11.584;2023-12-20T07:46:22;4.80;99.90
38209;DHT22;24016;52.102;11.584;2023-12-20T07:48:48;4.90;99.90
38209;DHT22;24016;52.102;11.584;2023-12-20T07:51:15;4.90;99.90
38209;DHT22;24016;52.102;11.584;2023-12-20T07:53:40;4.90;99.90
38209;DHT22;24016;52.102;11.584;2023-12-20T07:56:16;5.00;99.90
38209;DHT22;24016;52.102;11.584;2023-12-20T07:58:42;5.10;99.90
38209;DHT22;24016;52.102;11.584;2023-12-20T08:01:07;5.10;99.90
38209;DHT22;24016;52.102;11.584;2023-12-20T08:03:33;5.10;99.90
38209;DHT22;24016;52.102;11.584;2023-12-20T08:05:58;5.20;99.90
38209;DHT22;24016;52.102;11.584;2023-12-20T08:08:25;5.20;99.90
38209;DHT22;24016;52.102;11.584;2023-12-20T08:10:50;5.20;99.90
38209;DHT22;24016;52.102;11.584;2023-12-20T08:13:16;5.20;99.90
38209;DHT22;24016;52.102;11.584;2023-12-20T08:15:41;5.20;99.90
38209;DHT22;24016;52.102;11.584;2023-12-20T08:18:07;5.20;99.90
38209;DHT22;24016;52.102;11.584;2023-12-20T08:20:33;5.10;99.90
38209;DHT22;24016;52.102;11.584;2023-12-20T08:22:58;5.10;99.90
38209;DHT22;24016;52.102;11.584;2023-12-20T08:25:24;5.10;99.90
38209;DHT22;24016;52.102;11.584;2023-12-20T08:27:49;5.10;99.90
38209;DHT22;24016;52.102;11.584;2023-12-20T08:30:15;5.20;99.90
38209;DHT22;24016;52.102;11.584;2023-12-20T08:32:42;5.20;99.90
38209;DHT22;24016;52.102;11.584;2023-12-20T08:35:08;5.20;99.90
38209;DHT22;24016;52.102;11.584;2023-12-20T08:37:34;5.30;99.90
38209;DHT22;24016;52.102;11.584;2023-12-20T08:40:01;5.30;99.90
38209;DHT22;24016;52.102;11.584;2023-12-20T08:42:27;5.30;99.90
38209;DHT22;24016;52.102;11.584;2023-12-20T08:44:56;5.40;99.90
38209;DHT22;24016;52.102;11.584;2023-12-20T08:47:22;5.40;99.90
38209;DHT22;24016;52.102;11.584;2023-12-20T08:49:48;5.50;99.90
38209;DHT22;24016;52.102;11.584;2023-12-20T08:52:13;5.50;99.90
38209;DHT22;24016;52.102;11.584;2023-12-20T08:54:39;5.50;99.90
38209;DHT22;24016;52.102;11.584;2023-12-20T08:57:04;5.60;99.90
38209;DHT22;24016;52.102;11.584;2023-12-20T08:59:32;5.70;99.90
38209;DHT22;24016;52.102;11.584;2023-12-20T09:01:57;5.60;99.90
38209;DHT22;24016;52.102;11.584;2023-12-20T09:04:24;5.60;99.90
38209;DHT22;24016;52.102;11.584;2023-12-20T09:06:49;5.60;99.90
38209;DHT22;24016;52.102;11.584;2023-12-20T09:09:15;5.60;99.90
38209;DHT22;24016;52.102;11.584;2023-12-20T09:11:41;5.70;99.90
38209;DHT22;24016;52.102;11.584;2023-12-20T09:14:07;5.80;99.90
38209;DHT22;24016;52.102;11.584;2023-12-20T09:16:32;6.00;99.90
38209;DHT22;24016;52.102;11.584;2023-12-20T09:18:58;6.00;99.90
38209;DHT22;24016;52.102;11.584;2023-12-20T09:21:24;6.10;99.90
38209;DHT22;24016;52.102;11.584;2023-12-20T09:23:49;6.10;99.90
38209;DHT22;24016;52.102;11.584;2023-12-20T09:26:15;6.10;99.90
38209;DHT22;24016;52.102;11.584;2023-12-20T09:28:41;6.10;99.90
38209;DHT22;24016;52.102;11.584;2023-12-20T09:31:06;6.10;99.90
38209;DHT22;24016;52.102;11.584;2023-12-20T09:33:33;6.20;99.90
38209;DHT22;24016;52.102;11.584;2023-12-20T09:35:58;6.20;99.90
38209;DHT22;24016;52.102;11.584;2023-12-20T09:38:24;6.00;99.90
38209;DHT22;24016;52.102;11.584;2023-12-20T09:40:49;5.90;99.90
38209;DHT22;24016;52.102;11.584;2023-12-20T09:43:19;6.00;99.90
38209;DHT22;24016;52.102;11.584;2023-12-20T09:45:46;6.10;99.90
38209;DHT22;24016;52.102;11.584;2023-12-20T09:48:12;6.20;99.90
38209;DHT22;24016;52.102;11.584;2023-12-20T09:50:40;6.30;99.90
38209;DHT22;24016;52.102;11.584;2023-12-20T09:53:08;6.40;99.90
38209;DHT22;24016;52.102;11.584;2023-12-20T09:55:35;6.50;99.90
38209;DHT22;24016;52.102;11.584;2023-12-20T09:58:02;6.80;99.90
38209;DHT22;24016;52.102;11.584;2023-12-20T10:00:27;7.00;99.90
38209;DHT22;24016;52.102;11.584;2023-12-20T10:02:58;7.00;99.90
38209;DHT22;24016;52.102;11.584;2023-12-20T10:05:28;7.20;99.90
38209;DHT22;24016;52.102;11.584;2023-12-20T10:07:54;7.30;99.90
38209;DHT22;24016;52.102;11.584;2023-12-20T10:10:21;7.10;99.90
38209;DHT22;24016;52.102;11.584;2023-12-20T10:13:07;6.90;99.90
38209;DHT22;24016;52.102;11.584;2023-12-20T10:15:34;6.90;99.90
38209;DHT22;24016;52.102;11.584;2023-12-20T10:18:00;6.80;99.90
38209;DHT22;24016;52.102;11.584;2023-12-20T10:20:27;6.90;99.90
38209;DHT22;24016;52.102;11.584;2023-12-20T10:22:55;6.90;99.90
38209;DHT22;24016;52.102;11.584;2023-12-20T10:25:24;6.90;99.90
38209;DHT22;24016;52.102;11.584;2023-12-20T10:27:51;6.80;99.90
38209;DHT22;24016;52.102;11.584;2023-12-20T10:30:33;6.90;99.90
38209;DHT22;24016;52.102;11.584;2023-12-20T10:32:59;7.00;99.90
38209;DHT22;24016;52.102;11.584;2023-12-20T10:35:25;7.10;99.90
38209;DHT22;24016;52.102;11.584;2023-12-20T10:37:55;7.10;99.90
38209;DHT22;24016;52.102;11.584;2023-12-20T10:40:22;6.90;99.90
38209;DHT22;24016;52.102;11.584;2023-12-20T10:42:48;6.80;99.90
38209;DHT22;24016;52.102;11.584;2023-12-20T10:45:15;6.80;99.90
38209;DHT22;24016;52.102;11.584;2023-12-20T10:47:45;6.70;99.90
38209;DHT22;24016;52.102;11.584;2023-12-20T10:50:11;6.60;99.90
38209;DHT22;24016;52.102;11.584;2023-12-20T10:52:37;6.50;99.90
38209;DHT22;24016;52.102;11.584;2023-12-20T10:55:04;6.40;99.90
38209;DHT22;24016;52.102;11.584;2023-12-20T10:57:30;6.40;99.90
38209;DHT22;24016;52.102;11.584;2023-12-20T11:00:00;6.40;99.90
38209;DHT22;24016;52.102;11.584;2023-12-20T11:02:26;6.40;99.90
38209;DHT22;24016;52.102;11.584;2023-12-20T11:07:49;6.50;99.90
38209;DHT22;24016;52.102;11.584;2023-12-20T11:10:22;6.50;99.90
38209;DHT22;24016;52.102;11.584;2023-12-20T11:13:19;6.50;99.90
38209;DHT22;24016;52.102;11.584;2023-12-20T11:15:45;6.60;99.90
38209;DHT22;24016;52.102;11.584;2023-12-20T11:18:11;6.50;99.90
38209;DHT22;24016;52.102;11.584;2023-12-20T11:20:39;6.60;99.90
38209;DHT22;24016;52.102;11.584;2023-12-20T11:23:06;6.60;99.90
38209;DHT22;24016;52.102;11.584;2023-12-20T11:25:52;6.80;99.90
38209;DHT22;24016;52.102;11.584;2023-12-20T11:28:22;6.80;99.90
38209;DHT22;24016;52.102;11.584;2023-12-20T11:30:53;6.80;99.90
38209;DHT22;24016;52.102;11.584;2023-12-20T11:33:24;6.70;99.90
38209;DHT22;24016;52.102;11.584;2023-12-20T11:35:49;6.60;99.90
38209;DHT22;24016;52.102;11.584;2023-12-20T11:38:15;6.60;99.90
38209;DHT22;24016;52.102;11.584;2023-12-20T11:40:42;6.60;99.90
38209;DHT22;24016;52.102;11.584;2023-12-20T11:43:07;6.60;99.90
38209;DHT22;24016;52.102;11.584;2023-12-20T11:45:33;6.60;99.90
38209;DHT22;24016;52.102;11.584;2023-12-20T11:48:03;6.70;99.90
38209;DHT22;24016;52.102;11.584;2023-12-20T11:50:29;6.70;99.90
38209;DHT22;24016;52.102;11.584;2023-12-20T11:52:56;6.80;99.90
38209;DHT22;24016;52.102;11.584;2023-12-20T11:55:22;6.80;99.90
38209;DHT22;24016;52.102;11.584;2023-12-20T11:57:50;6.80;99.90
38209;DHT22;24016;52.102;11.584;2023-12-20T12:00:16;6.90;99.90
38209;DHT22;24016;52.102;11.584;2023-12-20T12:02:42;7.00;99.90
38209;DHT22;24016;52.102;11.584;2023-12-20T12:05:07;7.00;99.90
38209;DHT22;24016;52.102;11.584;2023-12-20T12:07:34;7.00;99.90
38209;DHT22;24016;52.102;11.584;2023-12-20T12:10:00;6.80;99.90
38209;DHT22;24016;52.102;11.584;2023-12-20T12:12:26;6.70;99.90
38209;DHT22;24016;52.102;11.584;2023-12-20T12:14:53;6.60;99.90
38209;DHT22;24016;52.102;11.584;2023-12-20T12:17:18;6.60;99.90
38209;DHT22;24016;52.102;11.584;2023-12-20T12:19:44;6.50;99.90
38209;DHT22;24016;52.102;11.584;2023-12-20T12:22:10;6.50;99.90
38209;DHT22;24016;52.102;11.584;2023-12-20T12:24:38;6.50;99.90
38209;DHT22;24016;52.102;11.584;2023-12-20T12:27:06;6.50;99.90
38209;DHT22;24016;52.102;11.584;2023-12-20T12:29:32;6.50;99.90
38209;DHT22;24016;52.102;11.584;2023-12-20T12:31:57;6.40;99.90
38209;DHT22;24016;52.102;11.584;2023-12-20T12:34:23;6.40;99.90
38209;DHT22;24016;52.102;11.584;2023-12-20T12:36:49;6.30;99.90
38209;DHT22;24016;52.102;11.584;2023-12-20T12:39:15;6.30;99.90
38209;DHT22;24016;52.102;11.584;2023-12-20T12:41:42;6.20;99.90
38209;DHT22;24016;52.102;11.584;2023-12-20T12:44:08;6.20;99.90
38209;DHT22;24016;52.102;11.584;2023-12-20T12:46:34;6.20;99.90
38209;DHT22;24016;52.102;11.584;2023-12-20T12:48:59;6.10;99.90
38209;DHT22;24016;52.102;11.584;2023-12-20T12:51:25;6.20;99.90
38209;DHT22;24016;52.102;11.584;2023-12-20T12:53:51;6.20;99.90
38209;DHT22;24016;52.102;11.584;2023-12-20T12:56:16;6.10;99.90
38209;DHT22;24016;52.102;11.584;2023-12-20T12:58:42;6.10;99.90
38209;DHT22;24016;52.102;11.584;2023-12-20T13:01:08;6.10;99.90
38209;DHT22;24016;52.102;11.584;2023-12-20T13:03:34;6.00;99.90
38209;DHT22;24016;52.102;11.584;2023-12-20T13:06:00;5.90;99.90
38209;DHT22;24016;52.102;11.584;2023-12-20T13:08:26;5.90;99.90
38209;DHT22;24016;52.102;11.584;2023-12-20T13:10:52;5.90;99.90
38209;DHT22;24016;52.102;11.584;2023-12-20T13:13:18;5.90;99.90
38209;DHT22;24016;52.102;11.584;2023-12-20T13:15:43;5.90;99.90
38209;DHT22;24016;52.102;11.584;2023-12-20T13:18:16;5.90;99.90
38209;DHT22;24016;52.102;11.584;2023-12-20T13:20:43;5.90;99.90
38209;DHT22;24016;52.102;11.584;2023-12-20T13:23:09;5.90;99.90
38209;DHT22;24016;52.102;11.584;2023-12-20T13:25:35;5.90;99.90
38209;DHT22;24016;52.102;11.584;2023-12-20T13:28:00;5.90;99.90
38209;DHT22;24016;52.102;11.584;2023-12-20T13:30:26;5.90;99.90
38209;DHT22;24016;52.102;11.584;2023-12-20T13:32:51;5.90;99.90
38209;DHT22;24016;52.102;11.584;2023-12-20T13:35:17;5.90;99.90
38209;DHT22;24016;52.102;11.584;2023-12-20T13:37:42;5.80;99.90
38209;DHT22;24016;52.102;11.584;2023-12-20T13:40:10;5.80;99.90
38209;DHT22;24016;52.102;11.584;2023-12-20T13:42:35;5.80;99.90
38209;DHT22;24016;52.102;11.584;2023-12-20T13:45:01;5.80;99.90
38209;DHT22;24016;52.102;11.584;2023-12-20T13:47:26;5.80;99.90
38209;DHT22;24016;52.102;11.584;2023-12-20T13:49:52;5.80;99.90
38209;DHT22;24016;52.102;11.584;2023-12-20T13:52:17;5.80;99.90
38209;DHT22;24016;52.102;11.584;2023-12-20T13:54:44;5.80;99.90
38209;DHT22;24016;52.102;11.584;2023-12-20T13:57:09;5.80;99.90
38209;DHT22;24016;52.102;11.584;2023-12-20T13:59:35;5.70;99.90
38209;DHT22;24016;52.102;11.584;2023-12-20T14:02:00;5.70;99.90
38209;DHT22;24016;52.102;11.584;2023-12-20T14:04:28;5.70;99.90
38209;DHT22;24016;52.102;11.584;2023-12-20T14:06:54;5.70;99.90
38209;DHT22;24016;52.102;11.584;2023-12-20T14:09:20;5.70;99.90
38209;DHT22;24016;52.102;11.584;2023-12-20T14:11:45;5.60;99.90
38209;DHT22;24016;52.102;11.584;2023-12-20T14:14:11;5.60;99.90
38209;DHT22;24016;52.102;11.584;2023-12-20T14:16:36;5.50;99.90
38209;DHT22;24016;52.102;11.584;2023-12-20T14:19:03;5.40;99.90
38209;DHT22;24016;52.102;11.584;2023-12-20T14:21:29;5.30;99.90
38209;DHT22;24016;52.102;11.584;2023-12-20T14:23:54;5.20;99.90
38209;DHT22;24016;52.102;11.584;2023-12-20T14:26:20;5.10;99.90
38209;DHT22;24016;52.102;11.584;2023-12-20T14:28:45;5.00;99.90
38209;DHT22;24016;52.102;11.584;2023-12-20T14:31:11;5.00;99.90
38209;DHT22;24016;52.102;11.584;2023-12-20T14:33:37;4.90;99.90
38209;DHT22;24016;52.102;11.584;2023-12-20T14:36:04;4.90;99.90
38209;DHT22;24016;52.102;11.584;2023-12-20T14:38:31;4.90;99.90
38209;DHT22;24016;52.102;11.584;2023-12-20T14:40:56;4.90;99.90
38209;DHT22;24016;52.102;11.584;2023-12-20T14:43:22;4.80;99.90
38209;DHT22;24016;52.102;11.584;2023-12-20T14:45:48;4.80;99.90
38209;DHT22;24016;52.102;11.584;2023-12-20T14:48:14;4.80;99.90
38209;DHT22;24016;52.102;11.584;2023-12-20T14:50:40;4.70;99.90
38209;DHT22;24016;52.102;11.584;2023-12-20T14:53:07;4.70;99.90
38209;DHT22;24016;52.102;11.584;2023-12-20T14:55:32;4.70;99.90
38209;DHT22;24016;52.102;11.584;2023-12-20T14:57:59;4.60;99.90
38209;DHT22;24016;52.102;11.584;2023-12-20T15:00:25;4.70;99.90
38209;DHT22;24016;52.102;11.584;2023-12-20T15:02:50;4.70;99.90
38209;DHT22;24016;52.102;11.584;2023-12-20T15:05:19;4.60;99.90
38209;DHT22;24016;52.102;11.584;2023-12-20T15:07:45;4.70;99.90
38209;DHT22;24016;52.102;11.584;2023-12-20T15:10:15;4.60;99.90
38209;DHT22;24016;52.102;11.584;2023-12-20T15:12:43;4.70;99.90
38209;DHT22;24016;52.102;11.584;2023-12-20T15:15:10;4.60;99.90
38209;DHT22;24016;52.102;11.584;2023-12-20T15:17:36;4.50;99.90
38209;DHT22;24016;52.102;11.584;2023-12-20T15:20:02;4.50;99.90
38209;DHT22;24016;52.102;11.584;2023-12-20T15:22:29;4.40;99.90
38209;DHT22;24016;52.102;11.584;2023-12-20T15:24:55;4.40;99.90
38209;DHT22;24016;52.102;11.584;2023-12-20T15:27:21;4.40;99.90